sensor_id;sensor_type;location;lat;lon;timestamp;temperature;humidity
18888;DHT22;9576;47.792;9.628;2023-05-10T00:01:03;13.40;99.90
18888;DHT22;9576;47.792;9.628;2023-05-10T00:04:04;13.40;99.90
18888;DHT22;9576;47.792;9.628;2023-05-10T00:07:08;13.30;99.90
18888;DHT22;9576;47.792;9.628;2023-05-10T00:10:11;13.30;99.90
18888;DHT22;9576;47.792;9.628;2023-05-10T00:13:13;13.30;99.90
18888;DHT22;9576;47.792;9.628;2023-05-10T00:16:15;13.40;99.90
18888;DHT22;9576;47.792;9.628;2023-05-10T00:19:17;13.30;99.90
18888;DHT22;9576;47.792;9.628;2023-05-10T00:22:20;13.30;99.90
18888;DHT22;9576;47.792;9.628;2023-05-10T00:25:22;13.20;99.90
18888;DHT22;9576;47.792;9.628;2023-05-10T00:28:24;13.20;99.90
18888;DHT22;9576;47.792;9.628;2023-05-10T00:31:26;13.20;99.90
18888;DHT22;9576;47.792;9.628;2023-05-10T00:34:28;13.20;99.90
18888;DHT22;9576;47.792;9.628;2023-05-10T00:37:32;13.20;99.90
18888;DHT22;9576;47.792;9.628;2023-05-10T00:40:35;13.20;99.90
18888;DHT22;9576;47.792;9.628;2023-05-10T00:43:37;13.20;99.90
18888;DHT22;9576;47.792;9.628;2023-05-10T00:46:39;13.30;99.90
18888;DHT22;9576;47.792;9.628;2023-05-10T00:49:41;13.20;99.90
18888;DHT22;9576;47.792;9.628;2023-05-10T00:52:45;13.20;99.90
18888;DHT22;9576;47.792;9.628;2023-05-10T00:55:47;13.20;99.90
18888;DHT22;9576;47.792;9.628;2023-05-10T00:58:49;13.10;99.90
18888;DHT22;9576;47.792;9.628;2023-05-10T01:01:52;13.00;99.90
18888;DHT22;9576;47.792;9.628;2023-05-10T01:04:55;12.90;99.90
18888;DHT22;9576;47.792;9.628;2023-05-10T01:07:58;12.90;99.90
18888;DHT22;9576;47.792;9.628;2023-05-10T01:11:00;12.90;99.90
18888;DHT22;9576;47.792;9.628;2023-05-10T01:14:03;12.90;99.90
18888;DHT22;9576;47.792;9.628;2023-05-10T01:17:06;12.80;99.90
18888;DHT22;9576;47.792;9.628;2023-05-10T01:20:11;12.80;99.90
18888;DHT22;9576;47.792;9.628;2023-05-10T01:23:30;12.80;99.90
18888;DHT22;9576;47.792;9.628;2023-05-10T01:27:01;12.80;99.90
18888;DHT22;9576;47.792;9.628;2023-05-10T01:30:33;12.80;99.90
18888;DHT22;9576;47.792;9.628;2023-05-10T01:33:43;12.70;99.90
18888;DHT22;9576;47.792;9.628;2023-05-10T01:36:50;12.70;99.90
18888;DHT22;9576;47.792;9.628;2023-05-10T01:39:58;12.70;99.90
18888;DHT22;9576;47.792;9.628;2023-05-10T01:43:03;12.70;99.90
18888;DHT22;9576;47.792;9.628;2023-05-10T01:46:09;12.70;99.90
18888;DHT22;9576;47.792;9.628;2023-05-10T01:49:20;12.70;99.90
18888;DHT22;9576;47.792;9.628;2023-05-10T01:52:26;12.70;99.90
18888;DHT22;9576;47.792;9.628;2023-05-10T01:55:32;12.70;99.90
18888;DHT22;9576;47.792;9.628;2023-05-10T01:58:36;12.70;99.90
18888;DHT22;9576;47.792;9.628;2023-05-10T02:01:40;12.70;99.90
18888;DHT22;9576;47.792;9.628;2023-05-10T02:04:44;12.60;99.90
18888;DHT22;9576;47.792;9.628;2023-05-10T02:07:47;12.50;99.90
18888;DHT22;9576;47.792;9.628;2023-05-10T02:10:53;12.50;99.90
18888;DHT22;9576;47.792;9.628;2023-05-10T02:13:56;12.50;99.90
18888;DHT22;9576;47.792;9.628;2023-05-10T02:16:59;12.50;99.90
18888;DHT22;9576;47.792;9.628;2023-05-10T02:20:04;12.60;99.90
18888;DHT22;9576;47.792;9.628;2023-05-10T02:23:07;12.60;99.90
18888;DHT22;9576;47.792;9.628;2023-05-10T02:26:10;12.60;99.90
18888;DHT22;9576;47.792;9.628;2023-05-10T02:29:14;12.60;99.90
18888;DHT22;9576;47.792;9.628;2023-05-10T02:32:17;12.60;99.90
18888;DHT22;9576;47.792;9.628;2023-05-10T02:35:22;12.70;99.90
18888;DHT22;9576;47.792;9.628;2023-05-10T02:38:25;12.60;99.90
18888;DHT22;9576;47.792;9.628;2023-05-10T02:41:30;12.60;99.90
18888;DHT22;9576;47.792;9.628;2023-05-10T02:44:35;12.60;99.90
18888;DHT22;9576;47.792;9.628;2023-05-10T02:47:37;12.60;99.90
18888;DHT22;9576;47.792;9.628;2023-05-10T02:50:44;12.50;99.90
18888;DHT22;9576;47.792;9.628;2023-05-10T02:53:48;12.50;99.90
18888;DHT22;9576;47.792;9.628;2023-05-10T02:56:53;12.50;99.90
18888;DHT22;9576;47.792;9.628;2023-05-10T02:59:56;12.50;99.90
18888;DHT22;9576;47.792;9.628;2023-05-10T03:02:58;12.60;99.90
18888;DHT22;9576;47.792;9.628;2023-05-10T03:06:02;12.60;99.90
18888;DHT22;9576;47.792;9.628;2023-05-10T03:09:04;12.50;99.90
18888;DHT22;9576;47.792;9.628;2023-05-10T03:12:14;12.60;99.90
18888;DHT22;9576;47.792;9.628;2023-05-10T03:15:25;12.60;99.90
18888;DHT22;9576;47.792;9.628;2023-05-10T03:18:40;12.60;99.90
18888;DHT22;9576;47.792;9.628;2023-05-10T03:21:49;12.50;99.90
18888;DHT22;9576;47.792;9.628;2023-05-10T03:24:54;12.60;99.90
18888;DHT22;9576;47.792;9.628;2023-05-10T03:27:57;12.50;99.90
18888;DHT22;9576;47.792;9.628;2023-05-10T03:30:59;12.60;99.90
18888;DHT22;9576;47.792;9.628;2023-05-10T03:34:01;12.50;99.90
18888;DHT22;9576;47.792;9.628;2023-05-10T03:37:04;12.50;99.90
18888;DHT22;9576;47.792;9.628;2023-05-10T03:40:07;12.50;99.90
18888;DHT22;9576;47.792;9.628;2023-05-10T03:43:09;12.50;99.90
18888;DHT22;9576;47.792;9.628;2023-05-10T03:46:11;12.50;99.90
18888;DHT22;9576;47.792;9.628;2023-05-10T03:49:13;12.40;99.90
18888;DHT22;9576;47.792;9.628;2023-05-10T03:52:17;12.40;99.90
18888;DHT22;9576;47.792;9.628;2023-05-10T03:55:19;12.40;99.90
18888;DHT22;9576;47.792;9.628;2023-05-10T03:58:20;12.30;99.90
18888;DHT22;9576;47.792;9.628;2023-05-10T04:01:23;12.30;99.90
18888;DHT22;9576;47.792;9.628;2023-05-10T04:04:25;12.30;99.90
18888;DHT22;9576;47.792;9.628;2023-05-10T04:07:28;12.30;99.90
18888;DHT22;9576;47.792;9.628;2023-05-10T04:10:30;12.20;99.90
18888;DHT22;9576;47.792;9.628;2023-05-10T04:13:32;12.20;99.90
18888;DHT22;9576;47.792;9.628;2023-05-10T04:16:34;12.20;99.90
18888;DHT22;9576;47.792;9.628;2023-05-10T04:19:36;12.30;99.90
18888;DHT22;9576;47.792;9.628;2023-05-10T04:22:39;12.20;99.90
18888;DHT22;9576;47.792;9.628;2023-05-10T04:25:41;12.20;99.90
18888;DHT22;9576;47.792;9.628;2023-05-10T04:28:43;12.30;99.90
18888;DHT22;9576;47.792;9.628;2023-05-10T04:31:45;12.30;99.90
18888;DHT22;9576;47.792;9.628;2023-05-10T04:34:47;12.30;99.90
18888;DHT22;9576;47.792;9.628;2023-05-10T04:37:50;12.30;99.90
18888;DHT22;9576;47.792;9.628;2023-05-10T04:40:52;12.40;99.90
18888;DHT22;9576;47.792;9.628;2023-05-10T04:43:54;12.40;99.90
18888;DHT22;9576;47.792;9.628;2023-05-10T04:46:56;12.40;99.90
18888;DHT22;9576;47.792;9.628;2023-05-10T04:49:58;12.50;99.90
18888;DHT22;9576;47.792;9.628;2023-05-10T04:53:02;12.60;99.90
18888;DHT22;9576;47.792;9.628;2023-05-10T04:56:04;12.60;99.90
18888;DHT22;9576;47.792;9.628;2023-05-10T04:59:06;12.70;99.90
18888;DHT22;9576;47.792;9.628;2023-05-10T05:02:08;12.80;99.90
18888;DHT22;9576;47.792;9.628;2023-05-10T05:05:10;12.80;99.90
18888;DHT22;9576;47.792;9.628;2023-05-10T05:08:13;12.80;99.90
18888;DHT22;9576;47.792;9.628;2023-05-10T05:11:15;12.80;99.90
18888;DHT22;9576;47.792;9.628;2023-05-10T05:14:17;12.80;99.90
18888;DHT22;9576;47.792;9.628;2023-05-10T05:17:21;12.80;99.90
18888;DHT22;9576;47.792;9.628;2023-05-10T05:20:23;12.80;99.90
18888;DHT22;9576;47.792;9.628;2023-05-10T05:23:26;12.80;99.90
18888;DHT22;9576;47.792;9.628;2023-05-10T05:26:28;12.80;99.90
18888;DHT22;9576;47.792;9.628;2023-05-10T05:29:30;12.90;99.90
18888;DHT22;9576;47.792;9.628;2023-05-10T05:32:32;12.90;99.90
18888;DHT22;9576;47.792;9.628;2023-05-10T05:35:34;12.80;99.90
18888;DHT22;9576;47.792;9.628;2023-05-10T05:38:37;12.80;99.90
18888;DHT22;9576;47.792;9.628;2023-05-10T05:41:39;12.80;99.90
18888;DHT22;9576;47.792;9.628;2023-05-10T05:44:41;12.90;99.90
18888;DHT22;9576;47.792;9.628;2023-05-10T05:47:43;12.90;99.90
18888;DHT22;9576;47.792;9.628;2023-05-10T05:50:45;13.00;99.90
18888;DHT22;9576;47.792;9.628;2023-05-10T05:53:48;13.20;99.90
18888;DHT22;9576;47.792;9.628;2023-05-10T05:56:50;13.10;99.90
18888;DHT22;9576;47.792;9.628;2023-05-10T05:59:52;13.10;99.90
18888;DHT22;9576;47.792;9.628;2023-05-10T06:02:54;13.00;99.90
18888;DHT22;9576;47.792;9.628;2023-05-10T06:05:56;13.00;99.90
18888;DHT22;9576;47.792;9.628;2023-05-10T06:08:59;13.00;99.90
18888;DHT22;9576;47.792;9.628;2023-05-10T06:12:01;12.90;99.90
18888;DHT22;9576;47.792;9.628;2023-05-10T06:15:03;12.90;99.90
18888;DHT22;9576;47.792;9.628;2023-05-10T06:18:05;12.90;99.90
18888;DHT22;9576;47.792;9.628;2023-05-10T06:21:07;12.80;99.90
18888;DHT22;9576;47.792;9.628;2023-05-10T06:24:11;12.80;99.90
18888;DHT22;9576;47.792;9.628;2023-05-10T06:27:13;12.80;99.90
18888;DHT22;9576;47.792;9.628;2023-05-10T06:30:15;12.90;99.90
18888;DHT22;9576;47.792;9.628;2023-05-10T06:33:17;13.00;99.90
18888;DHT22;9576;47.792;9.628;2023-05-10T06:36:19;13.20;99.90
18888;DHT22;9576;47.792;9.628;2023-05-10T06:39:22;13.20;99.90
18888;DHT22;9576;47.792;9.628;2023-05-10T06:42:24;13.20;99.90
18888;DHT22;9576;47.792;9.628;2023-05-10T06:45:29;13.30;99.90
18888;DHT22;9576;47.792;9.628;2023-05-10T06:48:31;13.50;99.90
18888;DHT22;9576;47.792;9.628;2023-05-10T06:51:33;13.60;99.90
18888;DHT22;9576;47.792;9.628;2023-05-10T06:54:37;13.80;99.90
18888;DHT22;9576;47.792;9.628;2023-05-10T06:57:39;13.80;99.90
18888;DHT22;9576;47.792;9.628;2023-05-10T07:00:41;13.70;99.90
18888;DHT22;9576;47.792;9.628;2023-05-10T07:03:44;13.70;99.90
18888;DHT22;9576;47.792;9.628;2023-05-10T07:06:46;13.70;99.90
18888;DHT22;9576;47.792;9.628;2023-05-10T07:09:51;13.60;99.90
18888;DHT22;9576;47.792;9.628;2023-05-10T07:12:53;13.50;99.90
18888;DHT22;9576;47.792;9.628;2023-05-10T07:15:55;13.60;99.90
18888;DHT22;9576;47.792;9.628;2023-05-10T07:18:57;13.50;99.90
18888;DHT22;9576;47.792;9.628;2023-05-10T07:21:59;13.50;99.90
18888;DHT22;9576;47.792;9.628;2023-05-10T07:25:03;13.50;99.90
18888;DHT22;9576;47.792;9.628;2023-05-10T07:28:06;13.40;99.90
18888;DHT22;9576;47.792;9.628;2023-05-10T07:31:08;13.40;99.90
18888;DHT22;9576;47.792;9.628;2023-05-10T07:34:10;13.40;99.90
18888;DHT22;9576;47.792;9.628;2023-05-10T07:37:12;13.40;99.90
18888;DHT22;9576;47.792;9.628;2023-05-10T07:40:16;13.50;99.90
18888;DHT22;9576;47.792;9.628;2023-05-10T07:43:18;13.60;99.90
18888;DHT22;9576;47.792;9.628;2023-05-10T07:46:19;13.60;99.90
18888;DHT22;9576;47.792;9.628;2023-05-10T07:49:22;13.60;99.90
18888;DHT22;9576;47.792;9.628;2023-05-10T07:52:25;13.80;99.90
18888;DHT22;9576;47.792;9.628;2023-05-10T07:55:28;13.80;99.90
18888;DHT22;9576;47.792;9.628;2023-05-10T07:58:30;13.80;99.90
18888;DHT22;9576;47.792;9.628;2023-05-10T08:01:34;13.90;99.90
18888;DHT22;9576;47.792;9.628;2023-05-10T08:04:36;13.90;99.90
18888;DHT22;9576;47.792;9.628;2023-05-10T08:07:37;14.00;99.90
18888;DHT22;9576;47.792;9.628;2023-05-10T08:10:41;13.90;99.90
18888;DHT22;9576;47.792;9.628;2023-05-10T08:13:43;13.80;99.90
18888;DHT22;9576;47.792;9.628;2023-05-10T08:16:45;13.90;99.90
18888;DHT22;9576;47.792;9.628;2023-05-10T08:19:47;13.90;99.90
18888;DHT22;9576;47.792;9.628;2023-05-10T08:22:49;13.90;99.90
18888;DHT22;9576;47.792;9.628;2023-05-10T08:25:52;14.10;99.90
18888;DHT22;9576;47.792;9.628;2023-05-10T08:28:54;14.00;99.90
18888;DHT22;9576;47.792;9.628;2023-05-10T08:31:56;14.00;99.90
18888;DHT22;9576;47.792;9.628;2023-05-10T08:34:58;14.00;99.90
18888;DHT22;9576;47.792;9.628;2023-05-10T08:38:00;14.00;99.90
18888;DHT22;9576;47.792;9.628;2023-05-10T08:41:04;14.10;99.90
18888;DHT22;9576;47.792;9.628;2023-05-10T08:44:08;14.40;99.90
18888;DHT22;9576;47.792;9.628;2023-05-10T08:47:10;14.50;99.90
18888;DHT22;9576;47.792;9.628;2023-05-10T08:50:13;14.60;99.90
18888;DHT22;9576;47.792;9.628;2023-05-10T08:53:16;14.80;99.90
18888;DHT22;9576;47.792;9.628;2023-05-10T08:56:20;14.80;99.90
18888;DHT22;9576;47.792;9.628;2023-05-10T08:59:22;14.80;99.90
18888;DHT22;9576;47.792;9.628;2023-05-10T09:02:25;14.70;99.90
18888;DHT22;9576;47.792;9.628;2023-05-10T09:05:27;14.40;99.90
18888;DHT22;9576;47.792;9.628;2023-05-10T09:08:29;14.40;99.90
18888;DHT22;9576;47.792;9.628;2023-05-10T09:11:33;14.40;99.90
18888;DHT22;9576;47.792;9.628;2023-05-10T09:14:35;14.30;99.90
18888;DHT22;9576;47.792;9.628;2023-05-10T09:17:38;14.40;99.90
18888;DHT22;9576;47.792;9.628;2023-05-10T09:20:41;14.50;99.90
18888;DHT22;9576;47.792;9.628;2023-05-10T09:23:44;14.40;99.90
18888;DHT22;9576;47.792;9.628;2023-05-10T09:26:48;14.40;99.90
18888;DHT22;9576;47.792;9.628;2023-05-10T09:29:50;14.30;99.90
18888;DHT22;9576;47.792;9.628;2023-05-10T09:32:55;14.30;99.90
18888;DHT22;9576;47.792;9.628;2023-05-10T09:36:06;14.40;99.90
18888;DHT22;9576;47.792;9.628;2023-05-10T09:39:08;14.60;99.90
18888;DHT22;9576;47.792;9.628;2023-05-10T09:42:12;14.60;99.90
18888;DHT22;9576;47.792;9.628;2023-05-10T09:45:14;14.60;99.90
18888;DHT22;9576;47.792;9.628;2023-05-10T09:48:16;14.50;99.90
18888;DHT22;9576;47.792;9.628;2023-05-10T09:51:21;14.50;99.90
18888;DHT22;9576;47.792;9.628;2023-05-10T09:54:23;14.50;99.90
18888;DHT22;9576;47.792;9.628;2023-05-10T09:57:26;14.50;99.90
18888;DHT22;9576;47.792;9.628;2023-05-10T10:00:33;14.60;99.90
18888;DHT22;9576;47.792;9.628;2023-05-10T10:03:41;14.70;99.90
18888;DHT22;9576;47.792;9.628;2023-05-10T10:06:43;14.60;99.90
18888;DHT22;9576;47.792;9.628;2023-05-10T10:09:45;14.50;99.90
18888;DHT22;9576;47.792;9.628;2023-05-10T10:12:49;14.50;99.90
18888;DHT22;9576;47.792;9.628;2023-05-10T10:15:52;14.50;99.90
18888;DHT22;9576;47.792;9.628;2023-05-10T10:18:55;14.50;99.90
18888;DHT22;9576;47.792;9.628;2023-05-10T10:21:57;14.50;99.90
18888;DHT22;9576;47.792;9.628;2023-05-10T10:24:59;14.40;99.90
18888;DHT22;9576;47.792;9.628;2023-05-10T10:28:12;14.40;99.90
18888;DHT22;9576;47.792;9.628;2023-05-10T10:31:26;14.30;99.90
18888;DHT22;9576;47.792;9.628;2023-05-10T10:34:30;14.30;99.90
18888;DHT22;9576;47.792;9.628;2023-05-10T10:37:43;14.20;99.90
18888;DHT22;9576;47.792;9.628;2023-05-10T10:40:47;14.20;99.90
18888;DHT22;9576;47.792;9.628;2023-05-10T10:44:22;14.30;99.90
18888;DHT22;9576;47.792;9.628;2023-05-10T10:47:24;14.30;99.90
18888;DHT22;9576;47.792;9.628;2023-05-10T10:50:29;14.30;99.90
18888;DHT22;9576;47.792;9.628;2023-05-10T10:53:32;14.40;99.90
18888;DHT22;9576;47.792;9.628;2023-05-10T10:56:34;14.40;99.90
18888;DHT22;9576;47.792;9.628;2023-05-10T10:59:41;14.50;99.90
18888;DHT22;9576;47.792;9.628;2023-05-10T11:02:45;14.60;99.90
18888;DHT22;9576;47.792;9.628;2023-05-10T11:05:49;14.60;99.90
18888;DHT22;9576;47.792;9.628;2023-05-10T11:08:53;14.60;99.90
18888;DHT22;9576;47.792;9.628;2023-05-10T11:11:55;14.50;99.90
18888;DHT22;9576;47.792;9.628;2023-05-10T11:14:59;14.60;99.90
18888;DHT22;9576;47.792;9.628;2023-05-10T11:18:17;14.70;99.90
18888;DHT22;9576;47.792;9.628;2023-05-10T11:21:19;14.80;99.90
18888;DHT22;9576;47.792;9.628;2023-05-10T11:24:22;14.80;99.90
18888;DHT22;9576;47.792;9.628;2023-05-10T11:27:24;14.80;99.90
18888;DHT22;9576;47.792;9.628;2023-05-10T11:30:28;14.70;99.90
18888;DHT22;9576;47.792;9.628;2023-05-10T11:33:30;14.60;99.90
18888;DHT22;9576;47.792;9.628;2023-05-10T11:36:34;14.30;99.90
18888;DHT22;9576;47.792;9.628;2023-05-10T11:39:36;13.90;99.90
18888;DHT22;9576;47.792;9.628;2023-05-10T11:42:38;13.50;99.90
18888;DHT22;9576;47.792;9.628;2023-05-10T11:45:41;13.20;99.90
18888;DHT22;9576;47.792;9.628;2023-05-10T11:48:43;12.90;99.90
18888;DHT22;9576;47.792;9.628;2023-05-10T11:51:45;12.60;99.90
18888;DHT22;9576;47.792;9.628;2023-05-10T11:54:51;12.40;99.90
18888;DHT22;9576;47.792;9.628;2023-05-10T11:57:54;12.10;99.90
18888;DHT22;9576;47.792;9.628;2023-05-10T12:00:58;12.00;99.90
18888;DHT22;9576;47.792;9.628;2023-05-10T12:04:00;12.00;99.90
18888;DHT22;9576;47.792;9.628;2023-05-10T12:07:02;12.10;99.90
18888;DHT22;9576;47.792;9.628;2023-05-10T12:10:06;12.40;99.90
18888;DHT22;9576;47.792;9.628;2023-05-10T12:13:12;12.50;99.90
18888;DHT22;9576;47.792;9.628;2023-05-10T12:16:18;12.70;99.90
18888;DHT22;9576;47.792;9.628;2023-05-10T12:19:21;13.00;99.90
18888;DHT22;9576;47.792;9.628;2023-05-10T12:22:23;13.20;99.90
18888;DHT22;9576;47.792;9.628;2023-05-10T12:25:30;13.20;99.90
18888;DHT22;9576;47.792;9.628;2023-05-10T12:28:32;13.40;99.90
18888;DHT22;9576;47.792;9.628;2023-05-10T12:31:51;13.90;99.90
18888;DHT22;9576;47.792;9.628;2023-05-10T12:34:54;14.20;99.90
18888;DHT22;9576;47.792;9.628;2023-05-10T12:37:56;14.70;99.90
18888;DHT22;9576;47.792;9.628;2023-05-10T12:40:58;14.70;99.90
18888;DHT22;9576;47.792;9.628;2023-05-10T12:44:01;15.10;99.90
18888;DHT22;9576;47.792;9.628;2023-05-10T12:47:04;15.30;99.90
18888;DHT22;9576;47.792;9.628;2023-05-10T12:50:07;15.60;99.90
18888;DHT22;9576;47.792;9.628;2023-05-10T12:53:09;15.90;99.90
18888;DHT22;9576;47.792;9.628;2023-05-10T12:56:11;15.90;99.90
18888;DHT22;9576;47.792;9.628;2023-05-10T12:59:13;16.20;99.90
18888;DHT22;9576;47.792;9.628;2023-05-10T13:02:17;16.40;99.90
18888;DHT22;9576;47.792;9.628;2023-05-10T13:05:20;16.30;99.90
18888;DHT22;9576;47.792;9.628;2023-05-10T13:08:22;16.40;99.90
18888;DHT22;9576;47.792;9.628;2023-05-10T13:11:24;16.30;99.90
18888;DHT22;9576;47.792;9.628;2023-05-10T13:14:26;16.30;99.90
18888;DHT22;9576;47.792;9.628;2023-05-10T13:17:30;16.30;99.90
18888;DHT22;9576;47.792;9.628;2023-05-10T13:20:32;16.30;99.90
18888;DHT22;9576;47.792;9.628;2023-05-10T13:23:34;16.30;99.90
18888;DHT22;9576;47.792;9.628;2023-05-10T13:26:36;16.10;99.90
18888;DHT22;9576;47.792;9.628;2023-05-10T13:29:38;16.10;99.90
18888;DHT22;9576;47.792;9.628;2023-05-10T13:32:41;16.10;99.90
18888;DHT22;9576;47.792;9.628;2023-05-10T13:35:43;16.30;99.90
18888;DHT22;9576;47.792;9.628;2023-05-10T13:38:45;16.40;99.90
18888;DHT22;9576;47.792;9.628;2023-05-10T13:41:48;16.60;99.90
18888;DHT22;9576;47.792;9.628;2023-05-10T13:44:50;16.50;99.90
18888;DHT22;9576;47.792;9.628;2023-05-10T13:47:53;16.40;99.90
18888;DHT22;9576;47.792;9.628;2023-05-10T13:50:55;16.50;99.90
18888;DHT22;9576;47.792;9.628;2023-05-10T13:53:57;16.40;99.90
18888;DHT22;9576;47.792;9.628;2023-05-10T13:56:59;16.50;99.90
18888;DHT22;9576;47.792;9.628;2023-05-10T14:00:01;16.50;99.90
18888;DHT22;9576;47.792;9.628;2023-05-10T14:03:05;16.20;99.90
18888;DHT22;9576;47.792;9.628;2023-05-10T14:06:08;16.00;99.90
18888;DHT22;9576;47.792;9.628;2023-05-10T14:09:10;15.90;99.90
18888;DHT22;9576;47.792;9.628;2023-05-10T14:12:12;15.90;99.90
18888;DHT22;9576;47.792;9.628;2023-05-10T14:15:15;15.80;99.90
18888;DHT22;9576;47.792;9.628;2023-05-10T14:18:18;15.90;99.90
18888;DHT22;9576;47.792;9.628;2023-05-10T14:21:20;15.80;99.90
18888;DHT22;9576;47.792;9.628;2023-05-10T14:24:22;15.60;99.90
18888;DHT22;9576;47.792;9.628;2023-05-10T14:27:24;15.60;99.90
18888;DHT22;9576;47.792;9.628;2023-05-10T14:30:26;15.40;99.90
18888;DHT22;9576;47.792;9.628;2023-05-10T14:33:29;15.30;99.90
18888;DHT22;9576;47.792;9.628;2023-05-10T14:36:31;15.20;99.90
18888;DHT22;9576;47.792;9.628;2023-05-10T14:39:33;15.10;99.90
18888;DHT22;9576;47.792;9.628;2023-05-10T14:42:35;15.10;99.90
18888;DHT22;9576;47.792;9.628;2023-05-10T14:45:37;15.00;99.90
18888;DHT22;9576;47.792;9.628;2023-05-10T14:48:40;15.00;99.90
18888;DHT22;9576;47.792;9.628;2023-05-10T14:51:42;14.80;99.90
18888;DHT22;9576;47.792;9.628;2023-05-10T14:54:45;14.90;99.90
18888;DHT22;9576;47.792;9.628;2023-05-10T14:57:47;14.90;99.90
18888;DHT22;9576;47.792;9.628;2023-05-10T15:00:50;15.00;99.90
18888;DHT22;9576;47.792;9.628;2023-05-10T15:03:54;14.80;99.90
18888;DHT22;9576;47.792;9.628;2023-05-10T15:06:56;14.70;99.90
18888;DHT22;9576;47.792;9.628;2023-05-10T15:09:59;14.70;99.90
18888;DHT22;9576;47.792;9.628;2023-05-10T15:13:01;14.80;99.90
18888;DHT22;9576;47.792;9.628;2023-05-10T15:16:03;14.60;99.90
18888;DHT22;9576;47.792;9.628;2023-05-10T15:19:07;14.60;99.90
18888;DHT22;9576;47.792;9.628;2023-05-10T15:22:09;14.60;99.90
18888;DHT22;9576;47.792;9.628;2023-05-10T15:25:10;14.60;99.90
18888;DHT22;9576;47.792;9.628;2023-05-10T15:28:12;14.40;99.90
18888;DHT22;9576;47.792;9.628;2023-05-10T15:31:14;14.40;99.90
18888;DHT22;9576;47.792;9.628;2023-05-10T15:34:18;14.40;99.90
18888;DHT22;9576;47.792;9.628;2023-05-10T15:37:20;14.10;99.90
18888;DHT22;9576;47.792;9.628;2023-05-10T15:40:23;14.00;99.90
18888;DHT22;9576;47.792;9.628;2023-05-10T15:43:25;14.10;99.90
18888;DHT22;9576;47.792;9.628;2023-05-10T15:46:27;14.10;99.90
18888;DHT22;9576;47.792;9.628;2023-05-10T15:49:31;14.10;99.90
18888;DHT22;9576;47.792;9.628;2023-05-10T15:52:33;14.10;99.90
18888;DHT22;9576;47.792;9.628;2023-05-10T15:55:35;14.00;99.90
18888;DHT22;9576;47.792;9.628;2023-05-10T15:58:37;14.20;99.90
18888;DHT22;9576;47.792;9.628;2023-05-10T16:01:39;14.20;99.90
18888;DHT22;9576;47.792;9.628;2023-05-10T16:04:43;14.00;99.90
18888;DHT22;9576;47.792;9.628;2023-05-10T16:07:45;13.90;99.90
18888;DHT22;9576;47.792;9.628;2023-05-10T16:10:49;13.90;99.90
18888;DHT22;9576;47.792;9.628;2023-05-10T16:13:51;13.90;99.90
18888;DHT22;9576;47.792;9.628;2023-05-10T16:16:53;13.80;99.90
18888;DHT22;9576;47.792;9.628;2023-05-10T16:19:57;13.80;99.90
18888;DHT22;9576;47.792;9.628;2023-05-10T16:23:02;13.70;99.90
18888;DHT22;9576;47.792;9.628;2023-05-10T16:26:04;13.70;99.90
18888;DHT22;9576;47.792;9.628;2023-05-10T16:29:06;13.60;99.90
18888;DHT22;9576;47.792;9.628;2023-05-10T16:32:08;13.60;99.90
18888;DHT22;9576;47.792;9.628;2023-05-10T16:35:11;13.50;99.90
18888;DHT22;9576;47.792;9.628;2023-05-10T16:38:13;13.50;99.90
18888;DHT22;9576;47.792;9.628;2023-05-10T16:41:15;13.40;99.90
18888;DHT22;9576;47.792;9.628;2023-05-10T16:44:17;13.30;99.90
18888;DHT22;9576;47.792;9.628;2023-05-10T16:47:19;13.20;99.90
18888;DHT22;9576;47.792;9.628;2023-05-10T16:50:22;13.20;99.90
18888;DHT22;9576;47.792;9.628;2023-05-10T16:53:24;13.20;99.90
18888;DHT22;9576;47.792;9.628;2023-05-10T16:56:26;13.20;99.90
18888;DHT22;9576;47.792;9.628;2023-05-10T16:59:28;13.20;99.90
18888;DHT22;9576;47.792;9.628;2023-05-10T17:02:30;13.10;99.90
18888;DHT22;9576;47.792;9.628;2023-05-10T17:05:33;13.10;99.90
18888;DHT22;9576;47.792;9.628;2023-05-10T17:08:35;13.10;99.90
18888;DHT22;9576;47.792;9.628;2023-05-10T17:11:37;13.10;99.90
18888;DHT22;9576;47.792;9.628;2023-05-10T17:14:39;13.10;99.90
18888;DHT22;9576;47.792;9.628;2023-05-10T17:17:41;13.00;99.90
18888;DHT22;9576;47.792;9.628;2023-05-10T17:20:44;12.80;99.90
18888;DHT22;9576;47.792;9.628;2023-05-10T17:23:46;12.70;99.90
18888;DHT22;9576;47.792;9.628;2023-05-10T17:26:48;12.70;99.90
18888;DHT22;9576;47.792;9.628;2023-05-10T17:29:54;12.60;99.90
18888;DHT22;9576;47.792;9.628;2023-05-10T17:32:56;12.50;99.90
18888;DHT22;9576;47.792;9.628;2023-05-10T17:36:00;12.50;99.90
18888;DHT22;9576;47.792;9.628;2023-05-10T17:39:02;12.40;99.90
18888;DHT22;9576;47.792;9.628;2023-05-10T17:42:04;12.50;99.90
18888;DHT22;9576;47.792;9.628;2023-05-10T17:45:07;12.40;99.90
18888;DHT22;9576;47.792;9.628;2023-05-10T17:48:09;12.30;99.90
18888;DHT22;9576;47.792;9.628;2023-05-10T17:51:12;12.30;99.90
18888;DHT22;9576;47.792;9.628;2023-05-10T17:54:14;12.30;99.90
18888;DHT22;9576;47.792;9.628;2023-05-10T17:57:16;12.50;99.90
18888;DHT22;9576;47.792;9.628;2023-05-10T18:00:18;12.50;99.90
18888;DHT22;9576;47.792;9.628;2023-05-10T18:03:20;12.70;99.90
18888;DHT22;9576;47.792;9.628;2023-05-10T18:06:24;12.70;99.90
18888;DHT22;9576;47.792;9.628;2023-05-10T18:09:26;12.70;99.90
18888;DHT22;9576;47.792;9.628;2023-05-10T18:12:28;12.70;99.90
18888;DHT22;9576;47.792;9.628;2023-05-10T18:15:31;12.70;99.90
18888;DHT22;9576;47.792;9.628;2023-05-10T18:18:33;12.60;99.90
18888;DHT22;9576;47.792;9.628;2023-05-10T18:21:37;12.40;99.90
18888;DHT22;9576;47.792;9.628;2023-05-10T18:24:39;12.30;99.90
18888;DHT22;9576;47.792;9.628;2023-05-10T18:27:40;12.20;99.90
18888;DHT22;9576;47.792;9.628;2023-05-10T18:30:42;12.00;99.90
18888;DHT22;9576;47.792;9.628;2023-05-10T18:33:44;11.90;99.90
18888;DHT22;9576;47.792;9.628;2023-05-10T18:36:48;12.00;99.90
18888;DHT22;9576;47.792;9.628;2023-05-10T18:39:50;11.90;99.90
18888;DHT22;9576;47.792;9.628;2023-05-10T18:42:52;11.70;99.90
18888;DHT22;9576;47.792;9.628;2023-05-10T18:45:53;11.40;99.90
18888;DHT22;9576;47.792;9.628;2023-05-10T18:48:55;11.10;99.90
18888;DHT22;9576;47.792;9.628;2023-05-10T18:51:59;10.60;99.90
18888;DHT22;9576;47.792;9.628;2023-05-10T18:55:01;10.70;99.90
18888;DHT22;9576;47.792;9.628;2023-05-10T18:58:02;10.70;99.90
18888;DHT22;9576;47.792;9.628;2023-05-10T19:01:04;10.90;99.90
18888;DHT22;9576;47.792;9.628;2023-05-10T19:04:07;10.80;99.90
18888;DHT22;9576;47.792;9.628;2023-05-10T19:07:10;10.50;99.90
18888;DHT22;9576;47.792;9.628;2023-05-10T19:10:12;10.50;99.90
18888;DHT22;9576;47.792;9.628;2023-05-10T19:13:14;10.20;99.90
18888;DHT22;9576;47.792;9.628;2023-05-10T19:16:16;10.30;99.90
18888;DHT22;9576;47.792;9.628;2023-05-10T19:19:18;10.50;99.90
18888;DHT22;9576;47.792;9.628;2023-05-10T19:22:21;10.60;99.90
18888;DHT22;9576;47.792;9.628;2023-05-10T19:25:23;10.70;99.90
18888;DHT22;9576;47.792;9.628;2023-05-10T19:28:28;10.80;99.90
18888;DHT22;9576;47.792;9.628;2023-05-10T19:31:30;10.70;99.90
18888;DHT22;9576;47.792;9.628;2023-05-10T19:34:32;10.70;99.90